Aviation Digital Data Service (ADDS)

Output produced by METARs form (2309 UTC 23 May 2022)
found at http://www.aviationweather.gov/metar/data/
 
LHSM 232245Z AUTO VRB02KT 9999 BKN048 BKN056 BKN066 18/11 Q1008
TAF LHSM 231115Z 2312/2321 16006KT CAVOK
       
LHDC 232245Z AUTO 08004KT CAVOK 12/07 Q1011 NOSIG
TAF LHDC 232015Z 2321/2406 08005KT CAVOK
       
LHBP 232300Z 08007KT CAVOK 17/07 Q1010 NOSIG
TAF LHBP 231715Z 2318/2418 14006KT CAVOK 
     BECMG 2321/2324 09008KT 
     TEMPO 2402/2410 VRB10G22KT 5000 SHRA TSRA SCT030CB BKN060
       
LHKE 232245Z 14006KT CAVOK 16/06 Q1010 NOSIG RMK BLU
TAF LHKE 232015Z 2321/2406 13006KT CAVOK 
     TEMPO 2401/2406 VRB10G20KT 5000 SHRA TSRA SCT030CB BKN060 
     BECMG 2403/2406 09006KT
       
LHPA 232245Z 14006KT 110V170 9999 SCT047 BKN083 20/08 Q1008 TEMPO -RA -SHRA RMK BLU
TAF LHPA 231715Z 2318/2418 17007KT CAVOK 
     PROB40 
     TEMPO 2318/2321 18010G20KT 
     BECMG 2318/2321 9999 BKN040 BKN080 
     TEMPO 2321/2403 15012G22KT 
     PROB40 
     TEMPO 2400/2408 5000 SHRA TSRA SCT030CB BKN040TCU OVC060 
     BECMG 2406/2409 10005KT 
     TEMPO 2409/2412 9999 SCT040 SCT080 
     TEMPO 2415/2418 08016G26KT
       
LHSN 232245Z 09004KT CAVOK 12/06 Q1010 NOSIG RMK BLU
TAF LHSN 232015Z 2321/2406 11007KT CAVOK 
     TEMPO 2403/2406 10015KT 6000 SHRA TSRA SCT030CB BKN050